createdAt,value
2022-09-23T00:02:21.005Z,101645.03
2022-09-23T00:04:48.437Z,101646.84
2022-09-23T00:07:17.888Z,101638.84
2022-09-23T00:09:45.293Z,101638.13
2022-09-23T00:12:12.703Z,101646.00
2022-09-23T00:14:40.117Z,101637.28
2022-09-23T00:17:07.737Z,101636.44
2022-09-23T00:19:35.226Z,101634.50
2022-09-23T00:22:02.648Z,101626.63
2022-09-23T00:24:32.374Z,101621.41
2022-09-23T00:26:59.838Z,101623.94
2022-09-23T00:29:27.446Z,101619.69
2022-09-23T00:31:54.847Z,101622.97
2022-09-23T01:11:01.073Z,101581.41
2022-09-23T01:13:33.190Z,101583.94
2022-09-23T01:16:03.700Z,101578.03
2022-09-23T01:18:34.443Z,101580.56
2022-09-23T01:21:09.001Z,101578.75
2022-09-23T01:24:14.585Z,101573.28
2022-09-23T01:27:00.335Z,101569.63
2022-09-23T01:29:47.252Z,101566.38
2022-09-23T01:32:17.165Z,101572.69
2022-09-23T01:34:48.034Z,101561.91
2022-09-23T01:37:18.488Z,101567.13
2022-09-23T01:39:49.135Z,101562.75
2022-09-23T01:42:17.913Z,101558.63
2022-09-23T01:44:48.136Z,101562.84
2022-09-23T01:47:17.458Z,101568.19
2022-09-23T01:49:48.219Z,101556.94
2022-09-23T01:52:16.380Z,101561.16
2022-09-23T01:54:46.099Z,101553.31
2022-09-23T01:57:15.840Z,101558.47
2022-09-23T01:59:45.468Z,101558.63
2022-09-23T02:02:15.039Z,101556.94
2022-09-23T02:04:46.775Z,101558.63
2022-09-23T02:07:17.140Z,101556.09
2022-09-23T02:09:45.843Z,101550.88
2022-09-23T02:12:16.045Z,101552.69
2022-09-23T02:14:46.002Z,101550.75
2022-09-23T02:17:14.591Z,101549.88
2022-09-23T02:19:46.210Z,101548.94
2022-09-23T02:22:15.959Z,101546.38
2022-09-23T02:24:45.014Z,101543.72
2022-09-23T02:27:16.271Z,101537.53
2022-09-23T02:29:47.367Z,101546.16
2022-09-23T02:32:17.041Z,101546.25
2022-09-23T02:34:46.554Z,101533.78
2022-09-23T02:37:22.734Z,101529.44
2022-09-23T02:39:55.634Z,101524.94
2022-09-23T02:42:24.556Z,101516.09
2022-09-23T02:44:52.036Z,101524.94
2022-09-23T02:47:19.832Z,101524.94
2022-09-23T02:49:49.342Z,101519.34
2022-09-23T02:52:17.333Z,101516.09
2022-09-23T02:54:44.754Z,101517.06
2022-09-23T02:57:13.423Z,101521.31
2022-09-23T02:59:41.916Z,101515.09
2022-09-23T03:02:45.653Z,101508.09
2022-09-23T03:05:18.958Z,101507.22
2022-09-23T03:07:48.651Z,101508.94
2022-09-23T03:10:17.458Z,101507.22
2022-09-23T03:12:47.968Z,101506.28
2022-09-23T03:15:22.134Z,101507.50
2022-09-23T03:17:52.832Z,101501.91
2022-09-23T03:20:26.273Z,101500.22
2022-09-23T03:22:55.702Z,101494.06
2022-09-23T03:25:24.148Z,101491.13
2022-09-23T03:27:51.613Z,101484.81
2022-09-23T03:30:21.612Z,101489.31
2022-09-23T03:32:49.177Z,101480.56
2022-09-23T03:35:16.715Z,101473.56
2022-09-23T03:37:47.631Z,101473.56
2022-09-23T03:40:16.939Z,101470.78
2022-09-23T03:42:44.460Z,101471.84
2022-09-23T03:45:17.056Z,101465.56
2022-09-23T03:47:44.464Z,101460.34
2022-09-23T03:50:13.333Z,101469.91
2022-09-23T03:52:40.750Z,101465.56
2022-09-23T03:55:09.971Z,101470.78
2022-09-23T03:57:37.511Z,101463.84
2022-09-23T04:00:05.370Z,101464.72
2022-09-23T04:02:39.067Z,101466.28
2022-09-23T04:05:07.032Z,101476.69
2022-09-23T04:07:34.498Z,101466.03
2022-09-23T04:10:04.881Z,101462.66
2022-09-23T04:12:33.620Z,101460.94
2022-09-23T04:15:01.074Z,101455.84
2022-09-23T04:17:28.461Z,101454.19
2022-09-23T04:19:55.865Z,101453.19
2022-09-23T04:22:23.264Z,101448.56
2022-09-23T04:24:51.267Z,101452.22
2022-09-23T04:27:18.687Z,101457.56
2022-09-23T04:29:47.375Z,101452.34
2022-09-23T04:32:17.604Z,101442.75
2022-09-23T04:34:44.998Z,101448.56
2022-09-23T04:37:12.505Z,101444.06
2022-09-23T04:39:39.910Z,101450.13
2022-09-23T04:42:07.552Z,101448.31
2022-09-23T04:44:35.024Z,101450.97
2022-09-23T04:47:04.272Z,101451.94
2022-09-23T04:49:33.832Z,101446.47
2022-09-23T04:52:02.717Z,101444.78
2022-09-23T04:54:30.236Z,101448.91
2022-09-23T04:56:57.646Z,101453.13
2022-09-23T04:59:25.367Z,101456.91
2022-09-23T05:01:54.531Z,101449.41
2022-09-23T05:04:23.259Z,101454.97
2022-09-23T05:06:50.656Z,101448.34
2022-09-23T05:09:18.287Z,101450.03
2022-09-23T05:11:45.912Z,101447.50
2022-09-23T05:14:13.370Z,101439.63
2022-09-23T05:16:41.133Z,101448.94
2022-09-23T05:19:08.617Z,101441.06
2022-09-23T05:21:37.721Z,101442.03
2022-09-23T05:24:05.547Z,101445.53
2022-09-23T05:26:33.252Z,101441.91
2022-09-23T05:29:00.779Z,101444.72
2022-09-23T05:31:29.061Z,101447.38
2022-09-23T05:33:57.347Z,101439.38
2022-09-23T05:36:25.311Z,101443.00
2022-09-23T05:38:56.477Z,101434.75
2022-09-23T05:41:24.013Z,101439.13
2022-09-23T05:43:51.647Z,101433.78
2022-09-23T05:46:19.900Z,101436.72
2022-09-23T05:48:47.613Z,101436.59
2022-09-23T05:51:16.185Z,101444.78
2022-09-23T05:53:45.296Z,101431.19
2022-09-23T05:56:14.052Z,101430.81
2022-09-23T05:58:41.520Z,101433.63
2022-09-23T06:01:12.450Z,101432.66
2022-09-23T06:03:39.989Z,101437.88
2022-09-23T06:06:07.546Z,101433.50
2022-09-23T06:08:35.545Z,101442.34
2022-09-23T06:11:07.029Z,101437.53
2022-09-23T06:13:38.084Z,101443.44
2022-09-23T06:16:06.004Z,101446.47
2022-09-23T06:18:33.443Z,101446.25
2022-09-23T06:21:01.916Z,101440.78
2022-09-23T06:23:29.491Z,101444.41
2022-09-23T06:26:03.106Z,101445.72
2022-09-23T06:28:32.106Z,101439.53
2022-09-23T06:31:01.285Z,101445.72
2022-09-23T06:33:35.670Z,101442.94
2022-09-23T06:36:04.899Z,101445.47
2022-09-23T06:38:33.538Z,101442.69
2022-09-23T06:41:01.401Z,101445.81
2022-09-23T06:43:28.804Z,101441.84
2022-09-23T06:45:56.509Z,101438.81
2022-09-23T06:48:26.180Z,101456.22
2022-09-23T06:50:53.759Z,101448.22
2022-09-23T06:53:22.774Z,101448.34
2022-09-23T06:55:50.297Z,101448.47
2022-09-23T06:58:17.682Z,101443.97
2022-09-23T07:00:45.232Z,101442.78
2022-09-23T07:03:12.819Z,101444.72
2022-09-23T07:05:41.525Z,101445.56
2022-09-23T07:08:09.535Z,101454.19
2022-09-23T07:10:38.460Z,101453.81
2022-09-23T07:13:05.840Z,101454.78
2022-09-23T07:15:33.883Z,101460.00
2022-09-23T07:18:01.344Z,101454.53
2022-09-23T07:20:29.525Z,101450.88
2022-09-23T07:22:58.272Z,101458.63
2022-09-23T07:25:25.693Z,101461.53
2022-09-23T07:27:53.195Z,101460.56
2022-09-23T07:30:25.122Z,101463.13
2022-09-23T07:32:53.150Z,101462.06
2022-09-23T07:35:20.612Z,101467.75
2022-09-23T07:37:48.510Z,101460.84
2022-09-23T07:40:17.273Z,101468.00
2022-09-23T07:42:44.929Z,101459.53
2022-09-23T07:45:12.930Z,101458.69
2022-09-23T07:47:40.825Z,101465.97
2022-09-23T07:50:11.421Z,101468.63
2022-09-23T07:52:38.958Z,101480.03
2022-09-23T07:55:06.673Z,101470.34
2022-09-23T07:57:35.360Z,101461.72
2022-09-23T08:00:03.226Z,101472.38
2022-09-23T08:02:39.136Z,101467.06
2022-09-23T08:05:07.397Z,101459.91
2022-09-23T08:07:34.824Z,101466.47
2022-09-23T08:10:02.210Z,101453.59
2022-09-23T08:12:30.146Z,101454.72
2022-09-23T08:15:00.332Z,101460.03
2022-09-23T08:17:27.731Z,101452.16
2022-09-23T08:19:55.127Z,101456.25
2022-09-23T08:22:22.532Z,101450.22
2022-09-23T08:24:50.723Z,101454.13
2022-09-23T08:27:19.415Z,101448.78
2022-09-23T08:29:47.707Z,101445.41
2022-09-23T08:32:16.678Z,101445.66
2022-09-23T08:34:44.112Z,101444.28
2022-09-23T08:37:11.835Z,101442.84
2022-09-23T08:39:39.245Z,101440.06
2022-09-23T08:42:13.208Z,101446.13
2022-09-23T08:44:45.721Z,101439.53
2022-09-23T08:47:17.835Z,101429.53
2022-09-23T08:49:49.185Z,101435.44
2022-09-23T08:52:19.152Z,101427.03
2022-09-23T08:54:46.554Z,101424.72
2022-09-23T08:57:26.588Z,101426.56
2022-09-23T08:59:54.639Z,101427.78
2022-09-23T09:02:23.646Z,101420.88
2022-09-23T09:04:52.962Z,101423.28
2022-09-23T09:07:37.881Z,101419.50
2022-09-23T09:10:07.209Z,101419.78
2022-09-23T09:12:35.395Z,101417.59
2022-09-23T09:15:04.903Z,101423.88
2022-09-23T09:17:36.541Z,101413.22
2022-09-23T09:20:08.189Z,101412.97
2022-09-23T09:22:43.246Z,101412.38
2022-09-23T09:25:18.619Z,101409.13
2022-09-23T09:27:46.033Z,101420.88
2022-09-23T09:30:14.492Z,101409.25
2022-09-23T09:32:46.224Z,101405.34
2022-09-23T09:35:20.056Z,101410.53
2022-09-23T09:37:48.183Z,101405.34
2022-09-23T09:40:17.082Z,101399.53
2022-09-23T09:42:47.194Z,101392.78
2022-09-23T09:45:19.780Z,101394.22
2022-09-23T09:47:52.263Z,101394.78
2022-09-23T09:50:21.988Z,101386.16
2022-09-23T09:52:49.525Z,101366.03
2022-09-23T09:55:25.188Z,101380.94
2022-09-23T09:57:53.614Z,101375.50
2022-09-23T10:00:39.077Z,101381.78
2022-09-23T10:03:33.973Z,101371.72
2022-09-23T10:06:01.406Z,101372.56
2022-09-23T10:08:32.083Z,101362.88
2022-09-23T10:11:03.604Z,101362.63
2022-09-23T10:13:31.228Z,101360.19
2022-09-23T10:15:58.925Z,101365.06
2022-09-23T10:18:30.142Z,101364.63
2022-09-23T10:21:07.874Z,101359.03
2022-09-23T10:23:35.256Z,101358.03
2022-09-23T10:26:03.538Z,101356.81
2022-09-23T10:28:32.089Z,101350.63
2022-09-23T10:31:06.377Z,101347.94
2022-09-23T10:33:36.130Z,101355.97
2022-09-23T10:36:03.522Z,101357.66
2022-09-23T10:38:31.513Z,101351.22
2022-09-23T10:41:18.634Z,101350.47
2022-09-23T10:44:11.309Z,101341.22
2022-09-23T10:46:39.602Z,101345.34
2022-09-23T10:49:25.474Z,101340.03
2022-09-23T10:51:59.947Z,101346.25
2022-09-23T10:54:31.462Z,101340.16
2022-09-23T10:57:00.852Z,101336.00
2022-09-23T10:59:36.012Z,101339.38
2022-09-23T11:02:12.202Z,101332.09
2022-09-23T11:04:55.094Z,101327.72
2022-09-23T11:07:23.800Z,101331.00
2022-09-23T11:10:04.227Z,101322.53
2022-09-23T11:12:35.432Z,101320.72
2022-09-23T11:15:10.928Z,101316.00
2022-09-23T11:17:47.600Z,101313.75
2022-09-23T11:20:28.059Z,101302.66
2022-09-23T11:23:10.472Z,101303.88
2022-09-23T11:25:43.112Z,101311.41
2022-09-23T11:28:20.724Z,101300.88
2022-09-23T11:30:50.787Z,101302.72
2022-09-23T11:33:24.578Z,101299.34
2022-09-23T11:35:55.760Z,101300.38
2022-09-23T11:38:26.124Z,101299.56
2022-09-23T11:40:55.601Z,101286.22
2022-09-23T11:43:24.246Z,101283.56
2022-09-23T11:45:56.402Z,101269.50
2022-09-23T11:48:26.839Z,101279.34
2022-09-23T11:50:57.452Z,101276.69
2022-09-23T11:53:27.879Z,101261.38
2022-09-23T11:55:58.943Z,101266.72
2022-09-23T11:58:27.457Z,101266.84
2022-09-23T12:01:01.311Z,101262.47
2022-09-23T12:03:43.352Z,101256.31
2022-09-23T12:06:15.715Z,101250.84
2022-09-23T12:08:43.517Z,101249.88
2022-09-23T12:11:19.378Z,101248.03
2022-09-23T12:13:50.322Z,101254.94
2022-09-23T12:16:42.371Z,101250.47
2022-09-23T12:19:18.058Z,101243.44
2022-09-23T12:25:16.524Z,101238.81
2022-09-23T12:27:54.764Z,101238.94
2022-09-23T12:30:24.134Z,101228.97
2022-09-23T12:33:02.687Z,101229.72
2022-09-23T12:35:43.909Z,101229.72
2022-09-23T12:38:54.417Z,101223.63
2022-09-23T12:41:28.072Z,101221.72
2022-09-23T12:43:56.491Z,101213.84
2022-09-23T12:46:27.574Z,101211.31
2022-09-23T12:49:05.160Z,101209.59
2022-09-23T12:51:34.770Z,101207.91
2022-09-23T12:54:24.165Z,101202.56
2022-09-23T12:57:07.738Z,101197.97
2022-09-23T12:59:57.923Z,101203.31
2022-09-23T13:02:30.904Z,101204.97
2022-09-23T13:05:19.402Z,101201.34
2022-09-23T13:07:48.029Z,101200.50
2022-09-23T13:10:17.734Z,101195.16
2022-09-23T13:12:46.456Z,101190.78
2022-09-23T13:15:21.307Z,101184.75
2022-09-23T13:17:49.772Z,101183.03
2022-09-23T13:20:34.116Z,101182.19
2022-09-23T13:23:20.105Z,101176.75
2022-09-23T13:25:47.530Z,101175.19
2022-09-23T13:28:31.462Z,101167.31
2022-09-23T13:30:58.852Z,101170.81
2022-09-23T13:33:30.625Z,101167.31
2022-09-23T13:36:01.096Z,101165.34
2022-09-23T13:38:31.927Z,101163.41
2022-09-23T13:41:01.025Z,101150.91
2022-09-23T13:43:31.755Z,101151.78
2022-09-23T13:46:00.328Z,101153.31
2022-09-23T13:48:28.361Z,101147.28
2022-09-23T13:50:56.281Z,101141.81
2022-09-23T13:53:25.531Z,101139.00
2022-09-23T13:56:06.398Z,101141.53
2022-09-23T13:58:37.014Z,101127.34
2022-09-23T14:01:04.668Z,101123.72
2022-09-23T14:03:36.527Z,101118.25
2022-09-23T14:06:06.365Z,101115.56
2022-09-23T14:08:37.430Z,101121.03
2022-09-23T14:11:05.068Z,101112.03
2022-09-23T14:13:42.217Z,101123.13
2022-09-23T14:16:11.049Z,101115.44
2022-09-23T14:18:39.260Z,101115.69
2022-09-23T14:21:06.853Z,101115.00
2022-09-23T14:23:34.277Z,101103.47
2022-09-23T14:26:02.109Z,101108.94
2022-09-23T14:28:29.508Z,101096.59
2022-09-23T14:31:00.124Z,101100.22
2022-09-23T14:33:31.225Z,101096.59
2022-09-23T14:36:07.147Z,101100.22
2022-09-23T14:38:52.019Z,101089.56
2022-09-23T14:41:32.793Z,101090.44
2022-09-23T14:44:01.100Z,101088.81
2022-09-23T14:46:32.720Z,101083.75
2022-09-23T14:49:08.393Z,101078.41
2022-09-23T14:51:38.415Z,101090.94
2022-09-23T14:54:34.982Z,101085.03
2022-09-23T14:57:02.700Z,101078.84
2022-09-23T14:59:33.981Z,101084.22
2022-09-23T15:02:02.744Z,101089.56
2022-09-23T15:04:32.392Z,101084.63
2022-09-23T15:07:02.063Z,101082.22
2022-09-23T15:09:31.299Z,101081.66
2022-09-23T15:11:59.928Z,101081.78
2022-09-23T15:14:44.885Z,101081.22
2022-09-23T15:17:21.410Z,101074.19
2022-09-23T15:19:52.650Z,101076.72
2022-09-23T15:22:20.144Z,101074.44
2022-09-23T15:24:47.613Z,101073.47
2022-09-23T15:27:30.651Z,101070.25
2022-09-23T15:30:17.024Z,101072.06
2022-09-23T15:32:46.072Z,101072.22
2022-09-23T15:35:15.711Z,101060.69
2022-09-23T15:37:43.458Z,101067.00
2022-09-23T15:40:15.950Z,101062.38
2022-09-23T15:42:52.242Z,101061.69
2022-09-23T15:45:35.686Z,101060.97
2022-09-23T15:48:07.276Z,101057.44
2022-09-23T15:50:35.096Z,101059.41
2022-09-23T15:53:02.542Z,101057.69
2022-09-23T15:55:30.001Z,101061.22
2022-09-23T15:57:57.411Z,101055.03
2022-09-23T16:00:24.814Z,101055.19
2022-09-23T16:02:52.280Z,101045.50
2022-09-23T16:05:23.566Z,101053.25
2022-09-23T16:07:55.600Z,101053.50
2022-09-23T16:10:25.235Z,101055.19
2022-09-23T16:12:53.018Z,101054.34
2022-09-23T16:15:22.169Z,101051.81
2022-09-23T16:17:51.079Z,101056.16
2022-09-23T16:20:18.632Z,101053.63
2022-09-23T16:22:50.684Z,101050.13
2022-09-23T16:25:18.096Z,101049.88
2022-09-23T16:27:45.865Z,101048.03
2022-09-23T16:30:13.456Z,101044.25
2022-09-23T16:32:40.881Z,101048.47
2022-09-23T16:35:09.498Z,101049.56
2022-09-23T16:37:37.002Z,101048.75
2022-09-23T16:40:07.463Z,101037.94
2022-09-23T16:42:35.022Z,101040.47
2022-09-23T16:45:02.498Z,101035.28
2022-09-23T16:47:29.918Z,101044.25
2022-09-23T16:49:57.296Z,101043.28
2022-09-23T16:52:24.688Z,101043.97
2022-09-23T16:54:52.300Z,101036.13
2022-09-23T16:57:20.983Z,101030.91
2022-09-23T17:00:06.183Z,101030.91
2022-09-23T17:02:50.850Z,101036.25
2022-09-23T17:05:19.281Z,101025.72
2022-09-23T17:07:46.732Z,101026.31
2022-09-23T17:10:18.500Z,101026.31
2022-09-23T17:12:47.413Z,101020.16
2022-09-23T17:15:14.794Z,101022.69
2022-09-23T17:17:43.925Z,101018.31
2022-09-23T17:20:13.092Z,101020.28
2022-09-23T17:22:40.749Z,101025.63
2022-09-23T17:25:08.765Z,101024.09
2022-09-23T17:27:37.121Z,101015.34
2022-09-23T17:30:06.850Z,101019.97
2022-09-23T17:32:34.245Z,101016.09
2022-09-23T17:35:04.503Z,101013.41
2022-09-23T17:37:32.897Z,101021.69
2022-09-23T17:40:00.349Z,101014.78
2022-09-23T17:42:28.033Z,101023.47
2022-09-23T17:44:56.708Z,101021.94
2022-09-23T17:47:27.637Z,101022.91
2022-09-23T17:49:56.084Z,101022.06
2022-09-23T17:52:23.513Z,101016.88
2022-09-23T17:54:50.916Z,101017.88
2022-09-23T17:57:18.328Z,101024.03
2022-09-23T17:59:45.748Z,101028.53
2022-09-23T18:02:15.746Z,101025.16
2022-09-23T18:04:44.643Z,101023.47
2022-09-23T18:07:12.066Z,101023.47
2022-09-23T18:09:39.469Z,101030.47
2022-09-23T18:12:06.886Z,101019.09
2022-09-23T18:36:44.087Z,101017.28
2022-09-23T18:50:25.865Z,101018.16
2022-09-23T18:52:53.339Z,101002.97
2022-09-23T18:55:20.733Z,101002.28
2022-09-23T18:57:48.615Z,101004.81
2022-09-23T19:00:16.120Z,101010.97
2022-09-23T19:02:44.258Z,101007.47
2022-09-23T19:05:12.918Z,101012.81
2022-09-23T19:07:40.344Z,101011.25
2022-09-23T19:10:09.076Z,101007.47
2022-09-23T19:12:36.469Z,101012.53
2022-09-23T19:15:04.467Z,101012.38
2022-09-23T19:17:31.943Z,101010.72
2022-09-23T19:19:59.401Z,101006.34
2022-09-23T19:22:29.756Z,101008.88
2022-09-23T19:24:57.124Z,101008.31
2022-09-23T19:27:24.504Z,101006.47
2022-09-23T19:29:51.876Z,101006.47
2022-09-23T19:32:19.266Z,100993.16
2022-09-23T19:34:46.684Z,100995.13
2022-09-23T19:37:14.403Z,100996.81
2022-09-23T19:39:44.178Z,100998.78
2022-09-23T19:42:11.555Z,100990.91
2022-09-23T19:44:39.116Z,100999.03
2022-09-23T19:47:06.867Z,100999.03
2022-09-23T19:49:34.285Z,100990.91
2022-09-23T19:52:01.812Z,100996.25
2022-09-23T19:54:29.231Z,100990.06
2022-09-23T19:56:57.902Z,100987.56
2022-09-23T19:59:26.197Z,100989.22
2022-09-23T20:01:53.642Z,100986.41
2022-09-23T20:04:21.452Z,100983.06
2022-09-23T20:06:49.544Z,100988.38
2022-09-23T20:09:16.958Z,100987.56
2022-09-23T20:11:44.419Z,100985.72
2022-09-23T20:14:13.333Z,100982.34
2022-09-23T20:16:40.943Z,100985.84
2022-09-23T20:19:08.432Z,100978.81
2022-09-23T20:21:36.222Z,100977.72
2022-09-23T20:24:05.534Z,100988.38
2022-09-23T20:26:50.919Z,100985.97
2022-09-23T20:29:19.597Z,100983.19
2022-09-23T20:31:47.016Z,100980.66
2022-09-23T20:34:14.428Z,100976.16
2022-09-23T20:36:42.449Z,100975.31
2022-09-23T20:39:10.053Z,100974.63
2022-09-23T20:41:38.322Z,100975.19
2022-09-23T20:44:07.458Z,100972.66
2022-09-23T20:46:36.616Z,100967.47
2022-09-23T20:49:04.072Z,100972.66
2022-09-23T20:51:33.062Z,100970.13
2022-09-23T20:54:00.811Z,100971.81
2022-09-23T20:56:28.546Z,100973.78
2022-09-23T20:58:55.958Z,100969.41
2022-09-23T21:01:23.428Z,100968.47
2022-09-23T21:03:52.314Z,100970.25
2022-09-23T21:06:19.805Z,100969.16
2022-09-23T21:08:47.193Z,100966.63
2022-09-23T21:11:15.762Z,100956.94
2022-09-23T21:13:46.445Z,100955.25
2022-09-23T21:16:15.241Z,100951.59
2022-09-23T21:18:42.788Z,100958.63
2022-09-23T21:21:12.084Z,100956.94
2022-09-23T21:23:39.576Z,100945.44
2022-09-23T21:26:07.933Z,100955.97
2022-09-23T21:28:36.031Z,100958.63
2022-09-23T21:31:04.379Z,100941.81
2022-09-23T21:33:31.841Z,100950.91
2022-09-23T21:36:03.329Z,100942.91
2022-09-23T21:38:32.195Z,100943.47
2022-09-23T21:40:59.618Z,100943.59
2022-09-23T21:43:27.570Z,100945.44
2022-09-23T21:45:59.501Z,100941.94
2022-09-23T21:48:28.787Z,100933.94
2022-09-23T21:51:00.111Z,100937.31
2022-09-23T21:53:29.327Z,100940.09
2022-09-23T21:56:03.353Z,100931.97
2022-09-23T21:58:30.964Z,100933.63
2022-09-23T22:00:58.656Z,100934.50
2022-09-23T22:03:26.257Z,100930.28
2022-09-23T22:06:04.200Z,100925.81
2022-09-23T22:08:36.663Z,100932.81
2022-09-23T22:11:06.460Z,100938.00
2022-09-23T22:13:33.936Z,100931.13
2022-09-23T22:16:03.672Z,100927.34
2022-09-23T22:18:31.096Z,100926.66
2022-09-23T22:20:59.170Z,100930.28
2022-09-23T22:23:26.559Z,100931.13
2022-09-23T22:26:02.837Z,100930.28
2022-09-23T22:28:50.213Z,100924.94
2022-09-23T22:31:35.106Z,100921.44
2022-09-23T22:34:02.584Z,100917.09
2022-09-23T22:36:29.983Z,100923.28
2022-09-23T22:38:59.329Z,100917.09
2022-09-23T22:41:27.307Z,100921.72
2022-09-23T22:43:55.991Z,100914.56
2022-09-23T22:46:23.548Z,100910.91
2022-09-23T22:48:53.143Z,100911.06
2022-09-23T22:51:21.638Z,100907.69
2022-09-23T22:53:49.045Z,100904.88
2022-09-23T22:56:16.428Z,100906.56
2022-09-23T22:58:43.808Z,100904.75
2022-09-23T23:01:12.507Z,100903.88
2022-09-23T23:03:40.321Z,100908.25
2022-09-23T23:06:08.719Z,100902.22
2022-09-23T23:08:36.998Z,100896.06
2022-09-23T23:11:05.156Z,100893.22
2022-09-23T23:13:32.577Z,100898.56
2022-09-23T23:16:03.553Z,100899.56
2022-09-23T23:18:33.252Z,100905.03
2022-09-23T23:21:07.976Z,100898.00
2022-09-23T23:23:37.545Z,100895.47
2022-09-23T23:26:12.798Z,100894.38
2022-09-23T23:28:40.450Z,100888.47
2022-09-23T23:31:08.700Z,100890.13
2022-09-23T23:33:37.545Z,100886.38
2022-09-23T23:36:05.337Z,100878.25
2022-09-23T23:38:34.891Z,100884.81
2022-09-23T23:41:02.647Z,100877.53
2022-09-23T23:43:30.086Z,100870.50
2022-09-23T23:45:57.687Z,100874.16
2022-09-23T23:48:25.176Z,100873.19
2022-09-23T23:50:54.661Z,100874.00
2022-09-23T23:53:22.073Z,100875.00
2022-09-23T23:55:49.443Z,100875.00
2022-09-23T23:58:17.877Z,100866.31
